METAR Data

Data at: 1206 UTC 21 Apr 2021

METAR for:KWVL (Waterville/Lafleur A, ME, US)
Text:KWVL 211156Z AUTO 01006KT 10SM FEW045 OVC055 07/03 A2982 RMK AO2 SLP127 60000 T00720028 10083 20050 58009
Temperature: 7.2°C ( 45°F)
Dewpoint: 2.8°C ( 37°F) [RH = 74%]
Pressure (altimeter):29.82 inches Hg (1009.9 mb) [Sea level pressure: 1012.7 mb]
Winds:from the N (10 degrees) at 7 MPH (6 knots; 3.1 m/s)
Visibility:10 or more sm (16+ km)
Ceiling:5500 feet AGL
Clouds: few clouds at 4500 feet AGL, overcast cloud deck at 5500 feet AGL
QC Flag:automated observation with no human augmentation